Time;durP1;ratioP1;P1;durP2;ratioP2;P2;SDS_P1;SDS_P2;PMS_P1;PMS_P2;Temp;Humidity;BMP_temperature;BMP_pressure;BME280_temperature;BME280_humidity;BME280_pressure;Samples;Min_cycle;Max_cycle;Signal;HPM_P1;HPM_P2
2021/04/17 00:01:52;;;;;;;;;;;;;;;4.31;80.16;100078.16;1736671;82;20230;-71
2021/04/17 00:04:20;;;;;;;;;;;;;;;4.29;80.17;100077.41;1736631;82;21234;-70
2021/04/17 00:06:47;;;;;;;;;;;;;;;4.27;80.17;100077.13;1736960;82;20235;-72
2021/04/17 00:09:17;;;;;;;;;;;;;;;4.27;80.20;100080.59;1689073;84;20281;-69
2021/04/17 00:11:46;;;;;;;;;;;;;;;4.27;80.20;100079.28;1708329;82;21286;-69
2021/04/17 00:14:28;;;;;;;;;;;;;;;4.27;80.23;100079.74;1736966;82;20659;-71
2021/04/17 00:16:57;;;;;;;;;;;;;;;4.26;80.24;100079.38;1709673;82;21905;-70
2021/04/17 00:19:25;;;;;;;;;;;;;;;4.24;80.25;100083.82;1709207;82;20256;-70
2021/04/17 00:21:53;;;;;;;;;;;;;;;4.23;80.28;100078.22;1708360;84;20224;-69
2021/04/17 00:24:20;;;;;;;;;;;;;;;4.22;80.31;100079.16;1733648;82;20520;-69
2021/04/17 00:26:47;;;;;;;;;;;;;;;4.21;80.35;100077.00;1736174;82;20320;-70
2021/04/17 00:29:14;;;;;;;;;;;;;;;4.18;80.40;100073.27;1736004;80;21832;-70
2021/04/17 00:31:41;;;;;;;;;;;;;;;4.17;80.42;100075.98;1746448;80;20262;-69
2021/04/17 00:34:09;;;;;;;;;;;;;;;4.18;80.51;100077.66;1732965;82;20501;-69
2021/04/17 00:36:36;;;;;;;;;;;;;;;4.22;80.53;100081.77;1718496;82;20374;-70
2021/04/17 00:39:06;;;;;;;;;;;;;;;4.25;80.54;100086.84;1737908;82;20227;-69
2021/04/17 00:41:34;;;;;;;;;;;;;;;4.26;80.56;100094.59;1737303;82;21900;-69
2021/04/17 00:44:02;;;;;;;;;;;;;;;4.28;80.56;100091.88;1737191;82;20364;-69
2021/04/17 00:46:31;;;;;;;;;;;;;;;4.31;80.56;100096.45;1731067;82;20225;-69
2021/04/17 00:48:59;;;;;;;;;;;;;;;4.34;80.55;100093.28;1690288;82;20478;-70
2021/04/17 00:51:26;;;;;;;;;;;;;;;4.37;80.56;100098.35;1706676;82;20230;-71
2021/04/17 00:53:53;;;;;;;;;;;;;;;4.40;80.56;100098.16;1738016;82;22106;-70
2021/04/17 00:56:21;;;;;;;;;;;;;;;4.44;80.58;100102.27;1731404;82;20386;-70
2021/04/17 00:58:48;;;;;;;;;;;;;;;4.45;80.55;100099.59;1735391;82;20415;-71
2021/04/17 01:01:15;;;;;;;;;;;;;;;4.46;80.54;100099.97;1735941;82;20532;-71
2021/04/17 01:04:07;;;;;;;;;;;;;;;4.49;80.52;100103.70;1735488;82;20230;-71
2021/04/17 01:06:48;;;;;;;;;;;;;;;4.51;80.54;100099.22;1720115;82;22089;-69
2021/04/17 01:09:40;;;;;;;;;;;;;;;4.52;80.48;100100.89;1724262;82;20288;-68
2021/04/17 01:12:13;;;;;;;;;;;;;;;4.54;80.43;100100.83;1728607;82;20230;-69
2021/04/17 01:14:43;;;;;;;;;;;;;;;4.55;80.40;100107.74;1710159;82;22181;-68
2021/04/17 01:17:13;;;;;;;;;;;;;;;4.54;80.40;100105.59;1732417;82;20276;-69
2021/04/17 01:20:10;;;;;;;;;;;;;;;4.55;80.38;100105.97;1727751;82;22178;-68
2021/04/17 01:22:37;;;;;;;;;;;;;;;4.57;80.38;100113.72;1725260;82;20234;-69
2021/04/17 01:25:09;;;;;;;;;;;;;;;4.55;80.36;100112.51;1708267;84;20347;-68
2021/04/17 01:27:36;;;;;;;;;;;;;;;4.55;80.36;100116.43;1719913;82;20442;-68
2021/04/17 01:30:10;;;;;;;;;;;;;;;4.56;80.33;100111.57;1713205;82;20244;-68
2021/04/17 01:32:38;;;;;;;;;;;;;;;4.55;80.31;100113.81;1712505;82;21857;-68
2021/04/17 01:35:07;;;;;;;;;;;;;;;4.55;80.32;100115.59;1737847;82;21062;-68
2021/04/17 01:37:47;;;;;;;;;;;;;;;4.56;80.36;100117.27;1706361;82;20311;-68
2021/04/17 01:40:14;;;;;;;;;;;;;;;4.57;80.35;100120.26;1695776;82;20319;-68
2021/04/17 01:42:42;;;;;;;;;;;;;;;4.60;80.34;100114.38;1726568;82;20221;-69
2021/04/17 01:45:10;;;;;;;;;;;;;;;4.63;80.30;100116.42;1717723;82;24202;-70
2021/04/17 01:47:37;;;;;;;;;;;;;;;4.63;80.27;100121.66;1724036;82;21254;-71
2021/04/17 01:50:06;;;;;;;;;;;;;;;4.62;80.27;100118.66;1737091;82;20222;-70
2021/04/17 01:52:34;;;;;;;;;;;;;;;4.63;80.30;100121.19;1737402;82;20497;-71
2021/04/17 01:55:01;;;;;;;;;;;;;;;4.63;80.27;100121.66;1733462;82;20218;-72
2021/04/17 01:57:28;;;;;;;;;;;;;;;4.62;80.28;100116.05;1707662;82;22093;-73
2021/04/17 01:59:55;;;;;;;;;;;;;;;4.64;80.33;100118.13;1737207;82;20537;-70
2021/04/17 02:02:24;;;;;;;;;;;;;;;4.66;80.27;100119.72;1736746;82;20215;-74
2021/04/17 02:04:51;;;;;;;;;;;;;;;4.65;80.24;100116.73;1735646;82;20474;-70
2021/04/17 02:07:19;;;;;;;;;;;;;;;4.65;80.22;100119.34;1737687;82;20413;-70
2021/04/17 02:09:46;;;;;;;;;;;;;;;4.65;80.24;100118.04;1730710;82;21911;-71
2021/04/17 02:12:13;;;;;;;;;;;;;;;4.68;80.27;100123.55;1708245;84;20253;-70
2021/04/17 02:14:41;;;;;;;;;;;;;;;4.71;80.25;100128.59;1705633;82;20488;-71
2021/04/17 02:17:27;;;;;;;;;;;;;;;4.71;80.23;100124.66;1707994;82;20759;-70
2021/04/17 02:19:58;;;;;;;;;;;;;;;4.73;80.24;100134.56;1733283;82;20591;-70
2021/04/17 02:22:26;;;;;;;;;;;;;;;4.73;80.24;100139.80;1720246;82;22111;-70
2021/04/17 02:24:53;;;;;;;;;;;;;;;4.74;80.21;100138.89;1737503;82;20840;-69
2021/04/17 02:27:20;;;;;;;;;;;;;;;4.74;80.22;100144.97;1737983;82;20222;-70
2021/04/17 02:29:51;;;;;;;;;;;;;;;4.76;80.23;100148.80;1720411;82;21489;-70
2021/04/17 02:32:18;;;;;;;;;;;;;;;4.74;80.17;100146.74;1724383;82;20217;-71
2021/04/17 02:34:46;;;;;;;;;;;;;;;4.73;80.17;100149.83;1733865;82;22029;-71
2021/04/17 02:37:13;;;;;;;;;;;;;;;4.70;80.18;100151.77;1720529;82;20499;-71
2021/04/17 02:39:41;;;;;;;;;;;;;;;4.65;80.23;100155.97;1737420;82;20511;-70
2021/04/17 02:42:09;;;;;;;;;;;;;;;4.63;80.29;100160.42;1730245;82;20257;-70
2021/04/17 02:44:37;;;;;;;;;;;;;;;4.63;80.36;100163.04;1707683;82;20214;-70
2021/04/17 02:47:05;;;;;;;;;;;;;;;4.65;80.42;100155.97;1734237;82;22098;-70
2021/04/17 02:49:33;;;;;;;;;;;;;;;4.68;80.51;100154.94;1737627;82;20219;-70
2021/04/17 02:52:01;;;;;;;;;;;;;;;4.67;80.55;100157.19;1727272;82;20224;-71
2021/04/17 02:54:28;;;;;;;;;;;;;;;4.65;80.64;100165.59;1719586;82;20362;-71
2021/04/17 02:56:55;;;;;;;;;;;;;;;4.64;80.76;100167.37;1735669;82;20274;-70
2021/04/17 02:59:23;;;;;;;;;;;;;;;4.64;80.90;100171.76;1735968;82;22068;-71
2021/04/17 03:01:50;;;;;;;;;;;;;;;4.63;81.01;100181.35;1683451;82;20397;-71
2021/04/17 03:04:19;;;;;;;;;;;;;;;4.61;81.09;100183.22;1713537;82;20238;-72
2021/04/17 03:06:46;;;;;;;;;;;;;;;4.61;81.20;100179.30;1738018;82;20452;-70
2021/04/17 03:09:14;;;;;;;;;;;;;;;4.59;81.27;100186.39;1732488;82;20227;-70
2021/04/17 03:11:41;;;;;;;;;;;;;;;4.55;81.36;100187.52;1713759;82;21912;-71
2021/04/17 03:14:09;;;;;;;;;;;;;;;4.51;81.45;100190.75;1736064;82;20507;-71
2021/04/17 03:16:36;;;;;;;;;;;;;;;4.51;81.58;100191.22;1729173;82;20215;-70
2021/04/17 03:19:04;;;;;;;;;;;;;;;4.52;81.70;100197.66;1734770;82;20574;-69
2021/04/17 03:21:33;;;;;;;;;;;;;;;4.55;81.78;100198.82;1735806;82;20226;-71
2021/04/17 03:24:02;;;;;;;;;;;;;;;4.55;81.84;100201.91;1733021;82;22089;-70
2021/04/17 03:26:30;;;;;;;;;;;;;;;4.54;81.86;100208.06;1737987;82;20357;-72
2021/04/17 03:28:59;;;;;;;;;;;;;;;4.54;81.97;100211.52;1727440;80;20222;-73
2021/04/17 03:31:27;;;;;;;;;;;;;;;4.55;82.04;100205.36;1707159;82;20374;-72
2021/04/17 03:33:57;;;;;;;;;;;;;;;4.56;82.10;100211.43;1685255;82;20221;-71
2021/04/17 03:36:27;;;;;;;;;;;;;;;4.57;82.14;100213.11;1723879;82;21844;-72
2021/04/17 03:38:55;;;;;;;;;;;;;;;4.60;82.25;100215.55;1726237;82;21274;-73
2021/04/17 03:41:24;;;;;;;;;;;;;;;4.63;82.29;100216.67;1732792;82;20223;-73
2021/04/17 03:43:56;;;;;;;;;;;;;;;4.65;82.33;100218.75;1736958;82;21480;-70
2021/04/17 03:46:23;;;;;;;;;;;;;;;4.68;82.38;100227.73;1727035;82;20218;-70
2021/04/17 03:48:52;;;;;;;;;;;;;;;4.70;82.38;100225.86;1729537;82;22094;-70
2021/04/17 03:51:19;;;;;;;;;;;;;;;4.74;82.45;100236.55;1736260;82;20370;-71
2021/04/17 03:53:47;;;;;;;;;;;;;;;4.77;82.45;100235.05;1731277;82;20517;-72
2021/04/17 03:56:16;;;;;;;;;;;;;;;4.79;82.49;100238.41;1735712;82;20285;-71
2021/04/17 03:58:45;;;;;;;;;;;;;;;4.82;82.53;100243.45;1737810;82;20266;-72
2021/04/17 04:01:14;;;;;;;;;;;;;;;4.87;82.54;100245.83;1734276;82;21912;-71
2021/04/17 04:03:43;;;;;;;;;;;;;;;4.89;82.55;100250.03;1736436;82;20250;-70
2021/04/17 04:06:10;;;;;;;;;;;;;;;4.91;82.54;100252.55;1725505;82;20232;-70
2021/04/17 04:08:37;;;;;;;;;;;;;;;4.91;82.51;100252.55;1743200;82;20308;-70
2021/04/17 04:11:05;;;;;;;;;;;;;;;4.92;82.52;100254.70;1743247;81;20236;-70
2021/04/17 04:13:32;;;;;;;;;;;;;;;4.93;82.52;100257.73;1747999;81;21909;-71
2021/04/17 04:15:59;;;;;;;;;;;;;;;4.92;82.56;100268.63;1717347;83;20976;-71
2021/04/17 04:18:26;;;;;;;;;;;;;;;4.95;82.58;100269.78;1719927;82;20221;-71
2021/04/17 04:20:55;;;;;;;;;;;;;;;4.97;82.61;100275.77;1732175;82;21460;-71
2021/04/17 04:23:22;;;;;;;;;;;;;;;4.99;82.60;100280.44;1719277;82;20700;-71
2021/04/17 04:25:49;;;;;;;;;;;;;;;4.99;82.64;100277.82;1714955;82;21850;-71
2021/04/17 04:28:16;;;;;;;;;;;;;;;4.99;82.64;100276.98;1753814;81;20220;-71
2021/04/17 04:30:43;;;;;;;;;;;;;;;5.00;82.69;100276.05;1685488;83;20226;-71
2021/04/17 04:33:11;;;;;;;;;;;;;;;4.99;82.74;100289.60;1711329;83;20383;-71
2021/04/17 04:35:39;;;;;;;;;;;;;;;5.02;82.77;100284.65;1750615;82;20221;-72
2021/04/17 04:38:06;;;;;;;;;;;;;;;5.03;82.83;100287.20;1746667;82;22081;-71
2021/04/17 04:40:33;;;;;;;;;;;;;;;5.04;82.84;100291.50;1750829;81;20384;-72
2021/04/17 04:43:01;;;;;;;;;;;;;;;5.05;82.86;100289.26;1751007;81;20499;-71
2021/04/17 04:45:28;;;;;;;;;;;;;;;5.07;82.91;100299.64;1747814;82;20311;-72
2021/04/17 04:47:55;;;;;;;;;;;;;;;5.07;82.94;100296.55;1727597;82;20285;-71
2021/04/17 04:50:23;;;;;;;;;;;;;;;5.06;82.97;100301.41;1723771;82;24298;-70
2021/04/17 04:52:50;;;;;;;;;;;;;;;5.07;83.03;100305.72;1731260;82;20247;-71
2021/04/17 04:55:17;;;;;;;;;;;;;;;5.07;83.10;100304.87;1732518;82;20292;-70
2021/04/17 04:57:45;;;;;;;;;;;;;;;5.05;83.12;100311.98;1728130;82;20498;-70
2021/04/17 05:00:13;;;;;;;;;;;;;;;5.03;83.18;100309.45;1716038;83;20226;-72
2021/04/17 05:02:41;;;;;;;;;;;;;;;5.03;83.25;100315.16;1719764;83;22080;-71
2021/04/17 05:05:09;;;;;;;;;;;;;;;5.05;83.35;100315.44;1669685;84;20223;-71
2021/04/17 05:07:37;;;;;;;;;;;;;;;5.06;83.37;100314.50;1717949;83;20222;-71
2021/04/17 05:10:05;;;;;;;;;;;;;;;5.07;83.45;100314.87;1748277;82;20477;-72
2021/04/17 05:12:32;;;;;;;;;;;;;;;5.10;83.48;100313.38;1738900;81;20221;-71
2021/04/17 05:14:59;;;;;;;;;;;;;;;5.14;83.56;100316.69;1735461;82;22103;-71
2021/04/17 05:17:27;;;;;;;;;;;;;;;5.16;83.62;100318.27;1741360;81;20378;-71
2021/04/17 05:19:55;;;;;;;;;;;;;;;5.18;83.70;100319.02;1746423;81;20268;-72
2021/04/17 05:22:22;;;;;;;;;;;;;;;5.21;83.76;100330.24;1743321;82;20484;-72
2021/04/17 05:24:50;;;;;;;;;;;;;;;5.22;83.77;100326.72;1730826;82;20220;-72
2021/04/17 05:27:18;;;;;;;;;;;;;;;5.22;83.86;100322.33;1736991;82;23018;-72
2021/04/17 05:29:46;;;;;;;;;;;;;;;5.25;83.91;100333.08;1731925;82;20266;-70
2021/04/17 05:32:14;;;;;;;;;;;;;;;5.27;83.96;100337.75;1757756;81;20535;-70
2021/04/17 05:34:42;;;;;;;;;;;;;;;5.31;84.03;100335.36;1763386;80;21197;-71
2021/04/17 05:37:09;;;;;;;;;;;;;;;5.35;84.05;100333.77;1762627;81;20236;-73
2021/04/17 05:39:37;;;;;;;;;;;;;;;5.40;84.09;100336.09;1762623;81;21904;-71
2021/04/17 05:42:05;;;;;;;;;;;;;;;5.43;84.06;100333.32;1753760;81;20381;-71
2021/04/17 05:44:33;;;;;;;;;;;;;;;5.45;84.03;100340.62;1746026;81;20438;-70
2021/04/17 05:47:00;;;;;;;;;;;;;;;5.49;84.04;100340.80;1757174;80;20390;-71
2021/04/17 05:49:28;;;;;;;;;;;;;;;5.55;83.99;100340.91;1759636;81;20753;-72
2021/04/17 05:51:55;;;;;;;;;;;;;;;5.55;83.98;100336.98;1765153;81;23176;-71
2021/04/17 05:54:22;;;;;;;;;;;;;;;5.60;83.90;100339.73;1761066;81;20224;-71
2021/04/17 05:56:50;;;;;;;;;;;;;;;5.63;83.87;100340.84;1765957;80;20244;-70
2021/04/17 05:59:17;;;;;;;;;;;;;;;5.66;83.82;100343.27;1759405;81;20316;-69
2021/04/17 06:01:45;;;;;;;;;;;;;;;5.71;83.82;100340.39;1759768;81;20264;-70
2021/04/17 06:04:14;;;;;;;;;;;;;;;5.75;83.75;100341.41;1758707;81;21906;-70
2021/04/17 06:06:42;;;;;;;;;;;;;;;5.83;83.76;100342.27;1733945;81;21423;-70
2021/04/17 06:09:09;;;;;;;;;;;;;;;5.91;83.67;100348.40;1747154;81;20140;-71
2021/04/17 06:11:36;;;;;;;;;;;;;;;5.92;83.44;100356.63;1751517;81;20314;-71
2021/04/17 06:14:04;;;;;;;;;;;;;;;5.91;83.21;100353.17;1758266;81;20299;-71
2021/04/17 06:16:31;;;;;;;;;;;;;;;5.96;83.08;100357.66;1762608;81;22060;-70
2021/04/17 06:19:01;;;;;;;;;;;;;;;6.01;83.08;100356.08;1716822;81;20421;-75
2021/04/17 06:21:30;;;;;;;;;;;;;;;6.08;82.99;100356.09;1737649;81;20235;-78
2021/04/17 06:23:58;;;;;;;;;;;;;;;6.15;82.85;100357.38;1739076;81;20428;-74
2021/04/17 06:26:26;;;;;;;;;;;;;;;6.24;82.90;100355.97;1759535;81;20284;-73
2021/04/17 06:28:54;;;;;;;;;;;;;;;6.30;82.70;100359.07;1759799;81;22115;-75
2021/04/17 06:31:23;;;;;;;;;;;;;;;6.36;82.53;100365.70;1756351;80;20287;-73
2021/04/17 06:33:51;;;;;;;;;;;;;;;6.40;82.37;100365.05;1754706;81;20277;-73
2021/04/17 06:36:19;;;;;;;;;;;;;;;6.44;82.23;100363.44;1754080;80;20469;-73
2021/04/17 06:38:46;;;;;;;;;;;;;;;6.50;82.02;100367.48;1761131;81;20256;-74
2021/04/17 06:41:13;;;;;;;;;;;;;;;6.47;81.56;100368.52;1736115;81;22095;-70
2021/04/17 06:43:41;;;;;;;;;;;;;;;6.46;81.43;100376.46;1743642;81;20291;-72
2021/04/17 06:46:11;;;;;;;;;;;;;;;6.47;81.42;100380.33;1761651;81;20455;-72
2021/04/17 06:48:41;;;;;;;;;;;;;;;6.49;81.33;100379.76;1762059;81;20267;-72
2021/04/17 06:51:12;;;;;;;;;;;;;;;6.51;81.22;100382.28;1730710;83;20437;-72
2021/04/17 06:53:40;;;;;;;;;;;;;;;6.49;81.17;100377.13;1727550;81;23283;-74
2021/04/17 06:56:07;;;;;;;;;;;;;;;6.50;81.02;100381.91;1723450;82;20236;-73
2021/04/17 06:58:35;;;;;;;;;;;;;;;6.51;80.86;100383.13;1731248;81;20362;-76
2021/04/17 07:01:04;;;;;;;;;;;;;;;6.51;80.76;100382.28;1757713;80;21197;-74
2021/04/17 07:03:31;;;;;;;;;;;;;;;6.53;80.69;100387.80;1759804;81;20220;-76
2021/04/17 07:05:59;;;;;;;;;;;;;;;6.53;80.49;100390.42;1746605;82;21948;-75
2021/04/17 07:08:26;;;;;;;;;;;;;;;6.51;80.37;100392.78;1752906;81;20869;-74
2021/04/17 07:10:53;;;;;;;;;;;;;;;6.54;80.34;100401.76;1759318;81;20267;-76
2021/04/17 07:13:21;;;;;;;;;;;;;;;6.53;80.12;100402.70;1756654;80;20292;-75
2021/04/17 07:15:48;;;;;;;;;;;;;;;6.54;80.10;100407.01;1757889;81;20286;-73
2021/04/17 07:18:30;;;;;;;;;;;;;;;6.57;80.01;100409.47;1744679;80;22512;-73
2021/04/17 07:21:15;;;;;;;;;;;;;;;6.56;79.77;100408.62;1761440;81;21706;-75
2021/04/17 07:23:43;;;;;;;;;;;;;;;6.54;79.66;100417.03;1748452;81;20298;-76
2021/04/17 07:26:15;;;;;;;;;;;;;;;6.55;79.59;100416.56;1755901;81;20453;-74
2021/04/17 07:28:57;;;;;;;;;;;;;;;6.58;79.50;100426.42;1730045;82;20470;-72
2021/04/17 07:31:27;;;;;;;;;;;;;;;6.54;79.26;100424.06;1749064;81;21903;-73
2021/04/17 07:33:54;;;;;;;;;;;;;;;6.49;79.16;100423.05;1744892;81;20368;-71
2021/04/17 07:36:22;;;;;;;;;;;;;;;6.49;79.14;100434.02;1765834;80;20271;-74
2021/04/17 07:38:50;;;;;;;;;;;;;;;6.47;79.16;100430.66;1728493;81;21197;-75
2021/04/17 07:41:19;;;;;;;;;;;;;;;6.47;79.21;100438.52;1763201;80;20554;-76
2021/04/17 07:43:58;;;;;;;;;;;;;;;6.45;79.11;100438.59;1738988;81;22893;-77
2021/04/17 07:46:28;;;;;;;;;;;;;;;6.46;79.06;100445.52;1754805;81;20272;-75
2021/04/17 07:49:14;;;;;;;;;;;;;;;6.45;78.98;100448.24;1723580;82;20250;-76
2021/04/17 07:51:57;;;;;;;;;;;;;;;6.43;78.90;100444.88;1715956;82;20466;-78
2021/04/17 07:54:25;;;;;;;;;;;;;;;6.41;78.79;100444.13;1729794;81;20294;-78
2021/04/17 07:56:52;;;;;;;;;;;;;;;6.39;78.75;100444.23;1728719;82;21665;-80
2021/04/17 07:59:22;;;;;;;;;;;;;;;6.38;78.76;100451.73;1731652;81;20913;-80
2021/04/17 08:01:50;;;;;;;;;;;;;;;6.40;78.86;100452.48;1732262;82;20603;-78
2021/04/17 08:04:24;;;;;;;;;;;;;;;6.42;78.78;100453.69;1745024;82;20758;-77
2021/04/17 08:06:52;;;;;;;;;;;;;;;6.42;78.70;100456.31;1740330;82;20256;-75
2021/04/17 08:09:21;;;;;;;;;;;;;;;6.43;78.61;100456.69;1753059;81;22133;-78
2021/04/17 08:11:54;;;;;;;;;;;;;;;6.42;78.47;100460.25;1752782;80;20220;-74
2021/04/17 08:14:23;;;;;;;;;;;;;;;6.37;78.28;100458.36;1722653;82;20271;-75
2021/04/17 08:16:50;;;;;;;;;;;;;;;6.35;78.16;100463.70;1750421;81;20307;-76
2021/04/17 08:19:19;;;;;;;;;;;;;;;6.31;78.08;100462.21;1757033;81;20267;-77
2021/04/17 08:21:48;;;;;;;;;;;;;;;6.29;78.05;100465.41;1727141;81;21814;-76
2021/04/17 08:24:21;;;;;;;;;;;;;;;6.30;78.11;100461.84;1756190;81;21251;-75
2021/04/17 08:26:52;;;;;;;;;;;;;;;6.34;78.19;100461.17;1750788;81;20287;-77
2021/04/17 08:29:39;;;;;;;;;;;;;;;6.37;78.16;100459.67;1728602;81;20400;-79
2021/04/17 08:32:34;;;;;;;;;;;;;;;6.45;78.08;100459.58;1880110;76;20250;-78
2021/04/17 08:35:15;;;;;;;;;;;;;;;6.42;78.04;100465.49;1837602;77;20221;-78
2021/04/17 08:37:55;;;;;;;;;;;;;;;6.44;78.06;100468.86;1832111;77;22590;-75
2021/04/17 08:40:39;;;;;;;;;;;;;;;6.50;78.11;100464.56;1821193;77;20388;-78
2021/04/17 08:43:17;;;;;;;;;;;;;;;6.52;77.99;100463.53;1833287;77;20277;-77
2021/04/17 08:46:11;;;;;;;;;;;;;;;6.57;77.94;100463.27;1833016;77;20973;-80
2021/04/17 08:48:43;;;;;;;;;;;;;;;6.60;77.92;100459.97;1823765;77;20259;-78
2021/04/17 08:51:38;;;;;;;;;;;;;;;6.64;77.67;100463.70;1846830;77;22036;-78
2021/04/17 08:54:10;;;;;;;;;;;;;;;6.62;77.30;100462.49;1826102;77;20275;-78
2021/04/17 08:56:52;;;;;;;;;;;;;;;6.59;77.16;100466.16;1781531;79;20270;-82
2021/04/17 08:59:27;;;;;;;;;;;;;;;6.60;77.12;100470.47;1762123;81;20288;-78
2021/04/17 09:01:56;;;;;;;;;;;;;;;6.60;76.84;100463.06;1763961;80;20244;-84
2021/04/17 09:04:24;;;;;;;;;;;;;;;6.62;76.87;100464.28;1764559;80;22085;-76
2021/04/17 09:06:53;;;;;;;;;;;;;;;6.67;76.85;100471.41;1774715;80;20971;-75
2021/04/17 09:09:25;;;;;;;;;;;;;;;6.68;76.62;100463.44;1766551;80;20247;-73
2021/04/17 09:12:07;;;;;;;;;;;;;;;6.69;76.41;100465.59;1754111;81;20268;-76
2021/04/17 09:14:38;;;;;;;;;;;;;;;6.69;76.40;100465.59;1757226;80;20259;-76
2021/04/17 09:17:06;;;;;;;;;;;;;;;6.71;76.33;100461.08;1758726;80;21893;-81
2021/04/17 09:19:51;;;;;;;;;;;;;;;6.75;76.32;100463.41;1762104;80;20776;-76
2021/04/17 09:22:30;;;;;;;;;;;;;;;6.77;75.90;100468.13;1762424;80;20390;-77
2021/04/17 09:25:01;;;;;;;;;;;;;;;6.80;75.90;100464.45;1750193;80;20279;-81
2021/04/17 09:27:32;;;;;;;;;;;;;;;6.85;75.81;100472.87;1749336;80;20218;-80
2021/04/17 09:30:03;;;;;;;;;;;;;;;6.88;75.56;100466.13;1752506;80;20407;-82
2021/04/17 09:32:44;;;;;;;;;;;;;;;6.89;75.22;100468.66;1761077;81;20448;-80
2021/04/17 09:35:19;;;;;;;;;;;;;;;6.89;74.93;100471.28;1764170;81;20252;-78
2021/04/17 09:37:50;;;;;;;;;;;;;;;6.88;74.77;100480.11;1763333;81;21124;-76
2021/04/17 09:40:17;;;;;;;;;;;;;;;6.82;74.67;100476.53;1762958;80;20265;-79
2021/04/17 09:42:44;;;;;;;;;;;;;;;6.81;74.81;100477.48;1769473;80;23254;-76
2021/04/17 09:45:12;;;;;;;;;;;;;;;6.82;74.93;100479.16;1763539;80;20233;-72
2021/04/17 09:47:58;;;;;;;;;;;;;;;6.86;74.99;100479.36;1763110;80;20240;-72
2021/04/17 09:50:26;;;;;;;;;;;;;;;6.86;74.95;100478.05;1760600;81;20528;-72
2021/04/17 09:52:53;;;;;;;;;;;;;;;6.84;74.86;100477.75;1763587;81;20137;-76
2021/04/17 09:55:22;;;;;;;;;;;;;;;6.82;74.99;100480.48;1764206;80;21893;-77
2021/04/17 09:57:49;;;;;;;;;;;;;;;6.85;75.06;100479.00;1762126;80;20366;-75
2021/04/17 10:00:32;;;;;;;;;;;;;;;6.87;74.91;100475.80;1762893;81;20248;-73
2021/04/17 10:02:54;;;;;;;;;;;;;;;6.89;74.78;100480.48;1761757;80;20460;-71
2021/04/17 10:05:33;;;;;;;;;;;;;;;6.96;74.79;100487.98;1763773;80;20208;-76
2021/04/17 10:08:00;;;;;;;;;;;;;;;7.05;74.81;100485.63;1763373;81;21833;-77
2021/04/17 10:10:36;;;;;;;;;;;;;;;7.14;74.53;100492.05;1763103;81;20257;-78
2021/04/17 10:13:03;;;;;;;;;;;;;;;7.22;74.44;100491.09;1750951;81;20216;-75
2021/04/17 10:15:32;;;;;;;;;;;;;;;7.32;74.48;100494.83;1764631;80;20295;-77
2021/04/17 10:18:01;;;;;;;;;;;;;;;7.39;74.10;100493.50;1771163;80;20427;-76
2021/04/17 10:20:30;;;;;;;;;;;;;;;7.42;73.64;100492.45;1780887;80;22522;-76
2021/04/17 10:23:00;;;;;;;;;;;;;;;7.39;72.90;100501.86;1763778;81;21273;-76
2021/04/17 10:25:37;;;;;;;;;;;;;;;7.37;73.00;100494.08;1766994;80;20240;-76
2021/04/17 10:28:21;;;;;;;;;;;;;;;7.42;73.07;100499.86;1757740;80;21338;-76
2021/04/17 10:30:51;;;;;;;;;;;;;;;7.49;73.10;100499.48;1767151;80;20474;-76
2021/04/17 10:33:22;;;;;;;;;;;;;;;7.50;72.73;100499.84;1776037;80;22030;-76
2021/04/17 10:35:50;;;;;;;;;;;;;;;7.52;72.29;100504.05;1767546;80;20491;-77
2021/04/17 10:38:24;;;;;;;;;;;;;;;7.48;72.00;100505.68;1771685;80;20242;-76
2021/04/17 10:40:52;;;;;;;;;;;;;;;7.49;72.04;100504.73;1776754;80;20249;-76
2021/04/17 10:43:19;;;;;;;;;;;;;;;7.51;72.10;100514.67;1781694;80;20216;-76
2021/04/17 10:45:47;;;;;;;;;;;;;;;7.51;72.20;100511.57;1721465;80;22493;-76
2021/04/17 10:48:20;;;;;;;;;;;;;;;7.51;71.72;100515.98;1793886;80;20372;-76
2021/04/17 10:51:07;;;;;;;;;;;;;;;7.46;71.47;100514.98;1766282;80;20232;-76
2021/04/17 10:53:36;;;;;;;;;;;;;;;7.43;71.63;100514.72;1782767;80;20212;-77
2021/04/17 10:56:12;;;;;;;;;;;;;;;7.48;71.78;100524.08;1766907;79;20392;-76
2021/04/17 10:58:40;;;;;;;;;;;;;;;7.51;71.77;100520.77;1764347;80;22064;-76
2021/04/17 11:01:10;;;;;;;;;;;;;;;7.55;71.80;100528.01;1767762;80;20377;-76
2021/04/17 11:03:45;;;;;;;;;;;;;;;7.54;71.53;100524.53;1794931;80;20417;-76
2021/04/17 11:06:18;;;;;;;;;;;;;;;7.54;71.22;100526.32;1794195;80;21111;-76
2021/04/17 11:08:46;;;;;;;;;;;;;;;7.54;71.25;100522.38;1786599;80;20422;-77
2021/04/17 11:11:15;;;;;;;;;;;;;;;7.56;71.06;100523.12;1783019;80;21655;-78
2021/04/17 11:13:43;;;;;;;;;;;;;;;7.55;70.88;100527.53;1762637;80;20340;-77
2021/04/17 11:16:13;;;;;;;;;;;;;;;7.57;70.65;100528.27;1746925;81;20232;-78
2021/04/17 11:18:43;;;;;;;;;;;;;;;7.64;70.75;100533.98;1755759;81;21236;-77
2021/04/17 11:21:14;;;;;;;;;;;;;;;7.71;70.58;100536.09;1760605;80;20234;-77
2021/04/17 11:23:48;;;;;;;;;;;;;;;7.75;70.56;100532.34;1744390;80;23082;-76
2021/04/17 11:26:21;;;;;;;;;;;;;;;7.82;70.47;100535.42;1777771;80;20377;-77
2021/04/17 11:28:54;;;;;;;;;;;;;;;7.88;70.22;100531.05;1739487;80;20218;-77
2021/04/17 11:31:25;;;;;;;;;;;;;;;7.93;69.59;100536.03;1784000;79;20481;-77
2021/04/17 11:33:53;;;;;;;;;;;;;;;7.98;69.65;100532.14;1794289;80;20218;-76
2021/04/17 11:36:22;;;;;;;;;;;;;;;8.10;69.47;100530.95;1794039;80;22963;-77
2021/04/17 11:38:51;;;;;;;;;;;;;;;8.19;68.49;100523.28;1763718;81;21043;-77
2021/04/17 11:41:18;;;;;;;;;;;;;;;8.26;68.26;100521.09;1763906;81;20507;-77
2021/04/17 11:43:46;;;;;;;;;;;;;;;8.33;68.16;100519.73;1781375;80;20238;-77
2021/04/17 11:46:14;;;;;;;;;;;;;;;8.42;67.75;100519.63;1795189;80;20493;-77
2021/04/17 11:48:42;;;;;;;;;;;;;;;8.47;67.33;100517.50;1775175;79;21876;-77
2021/04/17 11:51:09;;;;;;;;;;;;;;;8.49;67.04;100509.89;1777147;80;21675;-77
2021/04/17 11:53:38;;;;;;;;;;;;;;;8.52;67.14;100517.58;1777155;80;20243;-77
2021/04/17 11:56:06;;;;;;;;;;;;;;;8.59;66.87;100514.89;1776987;80;20274;-77
2021/04/17 11:58:35;;;;;;;;;;;;;;;8.68;67.05;100512.55;1777122;80;20263;-77
2021/04/17 12:01:04;;;;;;;;;;;;;;;8.72;66.80;100504.34;1775874;80;22122;-79
2021/04/17 12:03:32;;;;;;;;;;;;;;;8.77;66.39;100512.75;1756358;80;21385;-76
2021/04/17 12:06:00;;;;;;;;;;;;;;;8.72;66.21;100501.71;1767121;80;20223;-76
2021/04/17 12:08:28;;;;;;;;;;;;;;;8.71;66.35;100507.93;1789351;79;20506;-76
2021/04/17 12:10:55;;;;;;;;;;;;;;;8.71;66.42;100507.09;1777119;80;20214;-78
2021/04/17 12:13:22;;;;;;;;;;;;;;;8.75;66.48;100510.70;1749019;80;22357;-75
2021/04/17 12:15:51;;;;;;;;;;;;;;;8.82;66.29;100511.13;1784941;79;20826;-77
2021/04/17 12:18:18;;;;;;;;;;;;;;;8.84;64.74;100515.33;1755119;80;20404;-77
2021/04/17 12:20:46;;;;;;;;;;;;;;;8.79;63.90;100512.67;1720276;81;20220;-77
2021/04/17 12:23:13;;;;;;;;;;;;;;;8.74;64.10;100512.13;1782282;80;20411;-77
2021/04/17 12:25:41;;;;;;;;;;;;;;;8.74;64.35;100512.13;1763785;81;21890;-77
2021/04/17 12:28:09;;;;;;;;;;;;;;;8.77;64.36;100517.18;1765027;80;20325;-76
2021/04/17 12:30:36;;;;;;;;;;;;;;;8.72;63.97;100512.25;1790425;80;20283;-79
2021/04/17 12:33:07;;;;;;;;;;;;;;;8.69;64.27;100513.78;1738325;81;21118;-77
2021/04/17 12:35:37;;;;;;;;;;;;;;;8.70;64.18;100517.26;1753226;81;20401;-78
2021/04/17 12:38:05;;;;;;;;;;;;;;;8.68;64.08;100516.02;1777363;80;22053;-78
2021/04/17 12:40:35;;;;;;;;;;;;;;;8.65;63.38;100512.77;1766405;80;20222;-78
2021/04/17 12:43:04;;;;;;;;;;;;;;;8.58;63.79;100519.77;1786890;80;20227;-78
2021/04/17 12:45:31;;;;;;;;;;;;;;;8.57;64.07;100516.77;1763798;81;20522;-78
2021/04/17 12:48:00;;;;;;;;;;;;;;;8.59;64.08;100508.79;1763713;81;20228;-78
2021/04/17 12:50:28;;;;;;;;;;;;;;;8.64;64.29;100512.41;1784560;80;22129;-77
2021/04/17 12:52:56;;;;;;;;;;;;;;;8.70;64.28;100508.05;1763707;80;20370;-78
2021/04/17 12:55:23;;;;;;;;;;;;;;;8.77;64.42;100506.64;1795047;79;20520;-77
2021/04/17 12:57:50;;;;;;;;;;;;;;;8.94;64.56;100510.27;1781747;80;20749;-78
2021/04/17 13:00:18;;;;;;;;;;;;;;;9.18;63.64;100510.33;1773658;80;20240;-77
2021/04/17 13:02:47;;;;;;;;;;;;;;;9.48;63.40;100513.88;1788892;79;22641;-77